Date,TemperatureHighF,TemperatureAvgF,TemperatureLowF,DewpointHighF,DewpointAvgF,DewpointLowF,HumidityHigh,HumidityAvg,HumidityLow,PressureMaxIn,PressureMinIn,WindSpeedMaxMPH,WindSpeedAvgMPH,GustSpeedMaxMPH,PrecipitationSumIn
2012-1-1,81.1,68.6,59.4,67.0,60.9,58.0,96,79,49,30.26,30.15,4,0,0,0.00
2012-1-2,77.9,65.5,54.9,66.0,58.8,43.0,96,80,59,30.19,30.04,6,1,0,0.00
2012-1-3,55.3,49.8,40.4,46.0,29.7,13.0,77,50,20,30.37,30.16,9,2,0,0.00
2012-1-4,66.3,51.2,39.1,51.0,37.4,24.0,72,60,53,30.40,30.25,6,1,0,0.00
2012-1-5,68.2,55.3,44.4,46.0,36.6,26.0,86,54,21,30.30,30.18,6,1,0,0.00
2012-1-6,73.3,58.2,45.2,56.0,50.1,43.0,95,77,48,30.23,30.13,6,0,0,0.00
2012-1-7,77.0,63.7,51.9,60.0,53.3,46.0,95,72,34,30.20,30.10,5,0,0,0.00
2012-1-8,78.9,64.4,53.4,61.0,55.5,51.0,95,75,47,30.23,30.14,6,1,0,0.00
2012-1-9,78.9,68.3,59.8,66.0,61.3,56.0,94,79,60,30.19,30.09,6,1,0,0.00
2012-1-10,79.8,67.9,58.1,67.0,59.4,56.0,94,76,51,30.10,29.97,8,1,0,0.00
2012-1-11,75.3,68.9,60.3,68.0,64.3,58.0,95,85,73,29.98,29.80,11,1,0,0.00
2012-1-12,79.4,71.0,64.7,67.0,64.9,62.0,96,82,64,29.98,29.84,5,0,0,0.00
2012-1-13,71.1,67.0,60.8,64.0,60.8,55.0,89,81,64,30.16,29.97,4,0,0,0.00
2012-1-14,61.5,56.3,51.3,54.0,44.1,37.0,78,64,52,30.34,30.15,8,1,0,0.00
2012-1-15,71.4,56.8,42.8,46.0,40.0,28.0,74,56,30,30.42,30.31,7,1,0,0.00
2012-1-16,73.1,64.3,53.9,58.0,52.6,44.0,83,67,52,30.41,30.30,9,2,0,0.00
2012-1-17,79.3,69.6,61.2,63.0,59.4,55.0,87,71,53,30.30,30.16,7,1,0,0.00
2012-1-18,81.2,68.8,58.0,67.0,60.9,56.0,96,78,49,30.16,29.98,6,0,0,0.00
2012-1-19,77.4,67.3,57.7,62.0,57.1,52.0,93,72,42,30.13,29.99,7,1,0,0.00
2012-1-20,78.2,65.5,54.1,62.0,55.6,51.0,95,73,48,30.19,30.10,6,0,0,0.00
2012-1-21,80.8,68.1,56.9,63.0,59.3,55.0,94,75,50,30.15,30.04,7,1,0,0.00
2012-1-22,80.3,69.7,58.5,66.0,60.8,56.0,93,75,52,30.12,30.05,7,1,0,0.00
2012-1-23,80.0,72.7,66.7,68.0,65.6,64.0,93,79,60,30.12,30.06,8,2,0,0.00
2012-1-24,80.0,69.9,63.4,71.0,65.4,62.0,96,85,66,30.16,30.08,5,0,0,0.06
2012-1-25,79.5,73.0,65.6,70.0,66.8,63.0,94,81,68,30.17,30.08,7,1,0,0.00
2012-1-26,80.8,74.4,70.3,69.0,67.4,65.0,88,79,64,30.11,29.99,17,3,0,0.02
2012-1-27,85.8,76.3,69.8,72.0,68.2,66.0,91,77,53,30.05,29.94,7,1,0,0.00
2012-1-28,82.4,72.7,66.2,69.0,66.0,64.0,94,80,59,30.14,30.04,4,0,0,0.00
2012-1-29,76.4,70.2,64.5,65.0,62.8,59.0,90,78,64,30.24,30.11,5,1,0,0.00
2012-1-30,77.3,68.3,59.9,62.0,59.7,58.0,94,75,56,30.29,30.20,8,2,0,0.00
2012-1-31,76.9,71.1,67.0,64.0,61.2,59.0,82,71,61,30.30,30.21,7,2,0,0.00
2012-2-1,80.7,73.4,68.9,67.0,65.4,63.0,86,76,62,30.23,30.13,7,1,0,0.00
2012-2-2,74.0,69.7,66.0,71.0,67.1,64.0,95,91,87,30.15,30.06,3,0,0,0.02
2012-2-3,78.5,71.7,65.1,69.0,66.1,62.0,92,82,69,30.19,30.10,11,2,0,0.09
2012-2-4,78.0,73.1,71.1,70.0,67.3,65.0,91,82,74,30.15,30.05,14,2,0,0.03
2012-2-5,81.2,73.8,66.9,70.0,68.2,65.0,95,83,66,30.05,29.97,12,1,0,0.00
2012-2-6,75.6,71.2,67.7,72.0,68.8,66.0,96,92,83,30.06,29.97,8,0,0,1.52
2012-2-7,81.5,73.6,69.2,73.0,70.4,68.0,96,90,75,30.01,29.91,4,0,0,0.05
2012-2-8,77.9,71.1,67.9,69.0,67.2,63.0,96,87,72,30.04,29.95,6,1,0,0.00
2012-2-9,77.0,71.0,66.7,68.0,65.5,62.0,89,83,71,30.09,29.99,8,2,0,0.02
2012-2-10,83.3,74.1,70.3,74.0,70.3,68.0,95,88,68,30.05,29.87,7,1,0,0.61
2012-2-11,70.7,66.3,54.9,68.0,59.5,47.0,96,79,61,30.06,29.86,9,3,0,0.25
2012-2-12,60.7,52.9,46.1,47.0,41.0,32.0,82,65,50,30.25,30.06,12,3,0,0.00
2012-2-13,71.9,58.0,45.4,55.0,47.1,42.0,91,69,46,30.22,30.11,5,0,0,0.00
2012-2-14,77.4,66.6,55.2,62.0,57.9,53.0,95,75,56,30.13,30.06,9,1,0,0.00
2012-2-15,81.9,69.1,59.6,67.0,61.8,58.0,96,79,56,30.19,30.11,6,1,0,0.00
2012-2-16,81.6,71.3,63.5,68.0,65.1,62.0,95,81,59,30.18,30.07,6,1,0,0.00
2012-2-17,83.0,72.4,65.5,69.0,66.1,63.0,96,81,61,30.08,29.98,6,0,0,0.00
2012-2-18,82.3,73.7,65.3,69.0,66.5,63.0,94,79,60,30.01,29.89,7,1,0,0.00
2012-2-19,86.8,76.3,68.0,73.0,69.7,66.0,95,81,57,29.94,29.82,8,1,0,0.00
2012-2-20,78.1,67.4,59.8,66.0,58.4,56.0,89,74,51,30.15,29.93,6,1,0,0.00
2012-2-21,79.1,67.7,58.7,61.0,57.8,55.0,90,72,50,30.20,30.11,6,0,0,0.00
2012-2-22,83.6,70.6,60.3,66.0,62.7,58.0,94,77,53,30.12,29.94,7,1,0,0.00
2012-2-23,87.8,74.3,63.0,70.0,65.1,61.0,96,75,48,30.00,29.90,7,0,0,0.01
2012-2-24,90.0,76.7,66.7,73.0,68.8,64.0,96,78,48,30.03,29.94,7,1,0,0.00
2012-2-25,81.1,72.9,69.3,73.0,66.9,63.0,96,82,65,30.18,30.00,9,2,0,0.01
2012-2-26,76.1,72.5,68.4,69.0,66.5,64.0,86,81,76,30.25,30.16,8,3,0,0.00
2012-2-27,83.7,76.6,72.7,72.0,69.5,68.0,87,79,64,30.27,30.18,10,3,0,0.00
2012-2-28,85.1,76.3,69.5,72.0,69.0,67.0,94,79,60,30.24,30.16,7,1,0,0.00
2012-2-29,83.1,76.4,71.7,71.0,69.6,68.0,90,80,65,30.20,30.09,9,2,0,0.03
2012-3-1,82.5,74.9,68.6,72.0,69.1,66.0,95,82,66,30.12,30.00,9,1,0,0.00
2012-3-2,84.9,75.6,66.7,72.0,68.2,65.0,96,79,58,30.05,29.96,9,2,0,0.00
2012-3-3,85.5,77.2,71.6,73.0,70.5,68.0,89,80,63,29.98,29.85,11,3,0,0.00
2012-3-4,82.1,68.8,55.4,74.0,57.7,36.0,91,70,39,30.18,29.82,15,3,0,0.10
2012-3-5,76.3,62.9,50.5,56.0,47.5,36.0,83,58,45,30.33,30.18,12,1,0,0.00
2012-3-6,79.4,67.9,55.2,62.0,56.9,53.0,92,70,49,30.36,30.27,14,4,0,0.00
2012-3-7,77.7,72.6,69.0,67.0,63.5,58.0,84,73,67,30.34,30.25,13,4,0,0.02
2012-3-8,78.1,72.4,69.2,71.0,68.2,66.0,94,87,74,30.26,30.15,13,2,0,0.94
2012-3-9,82.3,75.9,71.8,70.0,69.0,67.0,90,79,66,30.19,30.08,14,2,0,0.00
2012-3-10,84.2,74.9,68.5,71.0,68.6,67.0,95,81,59,30.17,30.07,8,1,0,0.03
2012-3-11,82.7,74.8,68.8,69.0,67.0,65.0,94,77,57,30.25,30.15,10,3,0,1.12
2012-3-12,80.8,73.7,69.8,65.0,62.7,60.0,85,69,52,30.28,30.18,8,2,0,0.02
2012-3-13,82.0,73.1,64.5,63.0,61.7,60.0,85,68,50,30.23,30.15,6,1,0,0.00
2012-3-14,81.9,72.6,63.5,68.0,63.8,61.0,93,75,57,30.20,30.10,11,2,0,0.00
2012-3-15,82.3,75.2,70.5,69.0,66.7,63.0,85,75,60,30.20,30.10,8,2,0,0.00
2012-3-16,83.5,75.4,70.6,67.0,65.0,63.0,84,71,50,30.20,30.11,12,2,0,0.00
2012-3-17,83.6,74.6,63.3,66.0,63.1,60.0,93,69,51,30.20,30.12,6,1,0,0.00
2012-3-18,83.2,73.5,63.6,67.0,64.2,60.0,91,74,55,30.21,30.12,8,1,0,0.00
2012-3-19,82.6,74.4,67.9,67.0,63.5,59.0,89,70,51,30.16,30.06,7,1,0,0.02
2012-3-20,81.8,75.2,68.7,68.0,65.4,64.0,89,72,56,30.10,30.01,8,2,0,0.01
2012-3-21,82.7,76.9,72.6,70.0,68.1,66.0,87,75,61,30.14,30.03,11,4,0,0.01
2012-3-22,83.9,76.9,72.9,69.0,67.5,65.0,83,73,55,30.16,30.07,9,2,0,0.00
2012-3-23,85.1,76.8,68.8,68.0,65.3,63.0,86,69,51,30.12,30.02,7,1,0,0.00
2012-3-24,85.9,75.2,65.9,68.0,65.2,63.0,94,73,49,30.04,29.93,7,2,0,0.00
2012-3-25,85.1,76.0,68.2,70.0,66.8,64.0,92,74,53,29.96,29.80,8,1,0,0.00
2012-3-26,85.4,72.7,62.6,63.0,58.5,52.0,90,64,34,29.99,29.87,6,1,0,0.00
2012-3-27,82.8,73.6,66.2,68.0,64.0,60.0,90,73,51,30.16,29.97,9,2,0,0.01
2012-3-28,82.3,74.9,71.2,66.0,63.6,60.0,78,68,56,30.16,30.06,8,2,0,0.00
2012-3-29,84.3,72.8,64.0,66.0,63.0,61.0,93,73,49,30.08,29.98,8,0,0,0.00
2012-3-30,83.8,72.5,61.9,65.0,62.1,60.0,95,72,50,30.08,29.98,7,1,0,0.00
2012-3-31,88.6,74.2,65.3,71.0,67.4,63.0,95,81,50,30.02,29.87,10,1,0,0.64
2012-4-1,87.9,76.4,67.8,70.0,67.7,63.0,97,77,43,29.95,29.84,4,1,0,0.00
2012-4-2,90.5,77.7,66.4,71.0,67.3,61.0,96,73,38,29.92,29.84,5,0,0,0.00
2012-4-3,90.7,77.5,66.1,70.0,66.8,64.0,93,73,42,29.97,29.89,7,1,0,0.00
2012-4-4,88.7,77.4,69.6,73.0,69.6,67.0,96,79,51,29.98,29.82,8,1,0,0.00
2012-4-5,89.0,77.0,70.0,70.0,67.2,63.0,92,74,43,29.89,29.73,11,1,0,0.01
2012-4-6,88.1,77.6,71.8,74.0,69.1,62.0,95,77,48,29.89,29.73,12,2,0,0.03
2012-4-7,81.4,73.1,66.1,69.0,64.4,60.0,94,75,55,30.09,29.88,11,2,0,0.00
2012-4-8,81.5,72.6,67.2,62.0,58.8,57.0,76,63,46,30.15,30.07,6,1,0,0.00
2012-4-9,82.3,72.5,63.1,64.0,61.8,59.0,93,71,51,30.08,29.99,9,1,0,0.00
2012-4-10,84.8,73.3,63.5,65.0,61.2,59.0,94,69,42,30.08,29.98,8,1,0,0.00
2012-4-11,87.7,75.7,64.4,67.0,63.0,60.0,91,67,40,30.05,29.94,5,1,0,0.00
2012-4-12,87.3,74.1,64.5,68.0,63.8,59.0,90,72,39,30.04,29.95,6,1,0,0.00
2012-4-13,81.7,73.7,68.2,70.0,67.6,65.0,92,81,63,30.11,30.00,6,1,0,0.83
2012-4-14,80.5,74.5,69.7,68.0,64.3,61.0,92,71,56,30.22,30.08,13,4,0,0.01
2012-4-15,80.8,75.3,70.5,65.0,61.4,58.0,68,62,49,30.20,30.14,9,2,0,0.00
2012-4-16,83.4,76.8,72.6,64.0,60.7,56.0,69,58,47,30.20,30.10,14,3,0,0.00
2012-4-17,84.9,77.1,71.6,65.0,62.8,59.0,78,62,42,30.16,30.06,6,2,0,0.00
2012-4-18,84.1,76.5,68.1,68.0,65.5,64.0,89,70,55,30.10,29.97,8,1,0,0.00
2012-4-21,75.7,71.5,68.8,71.0,66.3,-99.9,96,86,75,29.84,29.67,10,-9,4,0.06
2012-4-22,82.6,74.5,65.9,72.0,67.0,63.0,94,78,53,29.73,29.55,8,2,0,0.12
2012-4-23,81.2,69.6,60.8,64.0,55.8,50.0,88,64,39,29.91,29.72,12,2,4,0.00
2012-4-24,76.4,66.4,55.9,55.0,46.1,37.6,85,52,26,30.03,29.89,7,1,13,0.00
2012-4-25,81.6,69.4,53.7,58.8,53.3,46.6,87,58,39,30.12,30.02,4,1,13,0.00
2012-4-26,84.5,72.0,59.8,63.7,61.2,57.1,94,71,46,30.14,30.06,4,1,12,0.00
2012-4-27,85.3,74.8,64.4,70.1,66.0,61.8,93,75,55,30.12,30.04,4,1,12,0.00
2012-4-28,81.0,74.4,66.1,73.7,70.2,64.0,96,87,65,30.08,30.01,5,1,15,0.76
2012-4-29,76.2,72.9,70.3,72.1,69.8,66.8,96,90,73,30.07,29.99,6,2,14,0.22
2012-4-30,76.2,73.0,70.3,72.7,69.9,67.7,95,90,83,30.05,29.98,7,3,22,0.00
2012-5-1,81.5,75.4,72.2,75.2,71.1,68.4,95,87,76,30.07,29.99,7,3,23,0.02
2012-5-2,85.0,78.0,73.7,73.3,70.8,69.2,88,79,64,30.09,29.99,6,2,16,0.27
2012-5-3,86.7,78.9,72.9,73.4,70.4,68.3,87,76,61,30.09,30.02,6,2,13,0.00
2012-5-4,87.1,78.6,71.4,70.3,68.9,65.6,89,73,52,30.09,30.00,4,1,9,0.00
2012-5-5,89.3,79.1,69.3,71.9,69.2,67.3,94,74,53,30.02,29.93,4,1,11,0.00
2012-5-6,90.0,78.2,78.2,70.0,70.0,67.0,76,76,59,29.98,29.88,7,0,5,0.00
2012-5-7,90.5,80.7,70.1,73.4,70.5,67.0,93,72,49,29.94,29.83,6,1,17,0.13
2012-5-8,88.5,75.2,69.8,74.1,69.8,66.2,95,85,54,29.92,29.86,6,0,13,0.04
2012-5-9,90.3,77.1,69.9,74.7,71.5,68.5,96,84,55,29.91,29.79,5,1,14,0.05
2012-5-10,93.3,78.7,71.7,76.3,72.5,69.2,95,83,51,29.90,29.76,4,1,11,1.06
2012-5-11,87.5,78.2,70.5,76.0,72.1,69.5,97,83,64,30.08,29.87,5,2,17,0.01
2012-5-12,86.5,79.5,75.7,72.0,70.2,68.4,83,74,58,30.16,30.05,6,2,19,0.00
2012-5-13,84.8,78.2,73.0,72.8,70.7,68.2,92,78,65,30.12,30.00,5,2,16,0.33
2012-5-14,87.7,78.2,72.1,76.4,73.3,70.5,96,86,65,30.05,29.93,4,1,13,0.10
2012-5-15,89.2,78.0,72.3,76.7,73.6,69.2,97,87,65,30.01,29.92,7,1,17,0.19
2012-5-16,81.5,76.1,70.7,75.7,72.1,69.5,97,88,73,30.02,29.91,1,0,6,0.02
2012-5-17,84.8,77.1,68.9,75.2,71.8,67.0,96,84,68,29.97,29.85,5,1,13,0.74
2012-5-18,88.7,75.9,71.6,74.3,70.8,67.5,97,85,59,29.93,29.84,6,0,14,0.21
2012-5-19,88.3,75.2,70.1,75.2,71.2,68.6,96,88,61,29.96,29.87,5,0,14,0.06
2012-5-20,89.5,78.3,70.6,74.4,71.7,69.4,97,81,60,29.96,29.88,3,0,8,0.01
2012-5-21,90.8,79.3,70.3,75.4,71.8,68.2,94,79,55,29.97,29.90,4,0,12,0.17
2012-5-22,87.8,76.7,72.5,75.8,72.5,70.4,95,88,61,29.97,29.89,6,1,15,0.34
2012-5-23,88.3,78.4,73.6,76.1,73.1,71.0,94,84,65,29.92,29.84,5,1,13,0.12
2012-5-24,83.3,75.4,72.2,76.7,72.6,69.8,96,91,76,29.89,29.81,4,0,13,0.48
2012-5-25,91.8,80.2,70.6,76.1,73.2,69.5,98,81,58,30.01,29.87,4,1,12,0.00
2012-5-26,91.0,81.1,74.3,76.4,74.2,72.5,97,81,56,30.02,29.94,3,1,11,0.00
2012-5-27,92.7,79.7,73.4,76.1,73.1,68.0,97,82,47,29.96,29.84,7,1,16,0.86
2012-5-28,89.8,79.6,72.0,77.4,74.0,69.8,95,84,64,29.97,29.88,8,2,18,0.25
2012-5-29,88.3,76.9,73.7,78.0,73.8,70.0,97,90,67,29.96,29.88,13,1,2,0.19
2012-5-30,94.2,82.1,72.2,77.6,73.8,69.2,98,78,46,29.94,29.81,6,2,13,0.10
2012-5-31,87.5,78.7,74.4,77.0,74.3,71.5,96,87,61,29.95,29.86,8,1,13,0.04
2012-6-1,80.3,74.7,72.6,77.0,73.5,71.3,97,96,87,29.98,29.89,5,0,5,1.09
2012-6-2,90.1,81.8,74.9,80.0,75.7,72.0,96,82,67,29.97,29.88,5,0,0,0.36
2012-6-3,93.0,81.8,73.2,76.0,71.7,66.0,96,74,43,30.03,29.93,9,1,0,0.00
2012-6-4,94.4,83.9,74.2,79.0,74.0,71.0,92,74,50,29.99,29.86,5,1,0,0.00
2012-6-5,91.0,81.7,76.8,79.0,75.5,70.0,96,82,60,29.89,29.81,6,0,0,0.01
2012-6-6,87.2,82.0,77.3,79.0,75.7,70.0,93,82,61,29.95,29.87,6,0,0,0.00
2012-6-7,96.3,85.7,80.1,80.0,76.7,73.0,94,76,48,29.96,29.90,5,0,0,0.00
2012-6-8,91.4,81.2,74.9,79.0,76.1,73.0,95,85,61,29.97,29.89,7,0,0,0.61
2012-6-9,90.6,80.8,75.1,79.0,76.6,74.0,96,87,68,30.02,29.92,7,1,0,0.07
2012-6-10,91.9,83.5,76.9,80.0,77.1,75.0,97,82,63,30.11,29.98,7,1,0,0.00
2012-6-11,89.9,82.9,77.2,76.0,72.8,69.0,91,73,53,30.10,30.03,6,1,0,0.00
2012-6-12,90.0,81.4,73.9,71.0,69.1,67.0,85,68,49,30.07,29.96,5,0,0,0.00
2012-6-13,92.3,81.9,72.4,74.0,71.4,67.0,96,73,48,29.98,29.87,5,1,0,0.00
2012-6-14,94.2,82.3,73.4,79.0,75.1,70.0,95,80,54,29.98,29.88,5,0,0,0.02
2012-6-15,91.7,80.3,73.5,78.0,74.4,71.0,96,83,62,30.01,29.90,6,1,0,0.65
2012-6-16,89.8,81.6,74.6,75.0,71.8,69.0,92,73,54,30.02,29.93,9,2,0,0.00
2012-6-17,87.6,80.3,72.3,72.0,68.8,65.0,90,69,52,30.02,29.93,8,1,0,0.00
2012-6-18,88.7,81.5,76.3,71.0,68.8,67.0,78,66,51,30.02,29.93,8,2,0,0.00
2012-6-19,86.0,80.7,77.8,76.0,72.3,68.0,88,76,65,30.03,29.96,12,2,0,0.05
2012-6-20,83.3,77.1,74.1,76.0,74.4,72.0,96,91,73,30.00,29.93,8,1,0,0.60
2012-6-21,89.8,81.0,74.6,78.0,75.3,73.0,96,83,66,29.98,29.86,9,1,0,0.10
2012-6-22,86.1,78.9,74.2,78.0,75.4,73.0,96,89,71,29.94,29.83,7,1,0,0.95
2012-6-23,85.5,78.4,73.0,79.0,75.2,71.0,97,90,77,30.00,29.85,8,2,0,0.85
2012-6-24,82.3,78.2,74.4,79.0,76.0,72.0,96,93,87,29.98,29.85,10,3,0,0.14
2012-6-25,91.1,84.4,81.4,78.0,76.6,74.0,88,78,60,29.85,29.75,12,4,0,0.00
2012-6-26,92.6,84.9,77.8,77.0,75.4,72.0,91,74,55,29.77,29.70,12,4,0,0.08
2012-6-27,92.4,84.6,78.4,80.0,77.0,74.0,90,78,59,29.98,29.75,7,2,0,0.00
2012-6-28,91.4,82.4,73.6,76.0,73.1,70.0,89,74,59,30.06,29.98,6,0,0,0.00
2012-6-29,95.5,78.0,74.9,74.0,59.0,-99.9,91,64,45,30.04,29.93,7,-51,0,0.01
2012-6-30,94.4,84.7,76.4,76.0,73.4,71.0,90,70,48,30.00,29.92,8,2,0,0.00
2012-7-1,93.9,84.5,76.4,76.0,73.9,71.0,93,72,51,30.07,29.97,10,2,0,0.00
2012-7-2,95.3,84.4,76.5,78.0,74.3,68.0,95,74,44,30.10,29.98,11,2,0,0.00
2012-7-3,93.2,84.6,75.7,76.0,74.3,72.0,94,72,51,30.06,29.98,9,2,0,0.00
2012-7-4,92.0,83.5,77.5,78.0,75.1,70.0,93,77,59,30.09,30.00,10,1,0,0.00
2012-7-5,92.1,82.9,76.1,77.0,74.4,72.0,92,76,54,30.05,29.97,8,2,0,0.06
2012-7-6,92.6,84.4,76.8,77.0,74.3,71.0,94,73,53,30.04,29.99,8,2,0,0.00
2012-7-7,91.5,84.5,77.2,77.0,74.9,71.0,91,74,51,30.08,30.01,12,2,0,0.00
2012-7-8,91.1,83.7,77.9,77.0,75.4,72.0,94,77,53,30.07,30.00,8,1,0,0.00
2012-7-9,90.8,83.2,75.8,77.0,74.7,73.0,95,76,56,30.05,29.96,6,2,0,0.00
2012-7-10,91.1,83.9,77.3,78.0,75.2,72.0,91,76,56,30.03,29.94,13,2,0,0.00
2012-7-11,85.0,77.7,72.1,74.0,72.9,70.0,95,85,66,30.07,29.94,7,1,0,0.89
2012-7-12,91.2,81.2,76.0,76.0,73.7,70.0,93,79,50,30.03,29.95,11,1,0,0.00
2012-7-13,89.1,82.1,74.1,76.0,73.7,71.0,93,76,58,30.04,29.97,9,2,0,0.02
2012-7-14,88.3,82.3,77.7,77.0,74.2,72.0,92,77,61,30.07,29.97,13,2,0,0.18
2012-7-15,90.6,79.9,74.4,75.0,73.5,71.0,96,82,53,30.11,30.02,8,2,0,0.37
2012-7-16,86.1,76.8,72.4,77.0,73.5,71.0,95,90,70,30.10,29.98,7,1,0,0.96
2012-7-17,93.8,78.3,73.6,78.0,73.8,71.0,96,87,55,30.04,29.96,8,1,0,0.65
2012-7-18,95.2,83.3,73.0,78.0,74.7,71.0,96,77,45,30.12,29.99,7,2,0,0.00
2012-7-19,92.4,84.7,77.3,79.0,76.0,73.0,97,76,55,30.17,30.09,9,2,0,0.00
2012-7-20,91.8,84.7,77.6,77.0,76.2,74.0,92,76,57,30.13,30.03,9,2,0,0.00
2012-7-21,91.4,85.5,81.3,78.0,77.2,76.0,86,76,63,30.09,30.02,10,3,0,0.00
2012-7-22,88.3,80.1,73.0,79.0,75.3,71.0,96,85,70,30.12,30.02,13,2,0,1.60
2012-7-23,91.2,81.2,74.0,78.0,75.2,70.0,96,83,60,30.16,30.08,9,2,0,0.35
2012-7-24,94.2,83.7,75.7,80.0,77.2,67.0,94,81,60,30.13,30.02,7,2,0,0.08
2012-7-25,97.3,84.8,76.2,79.0,75.6,73.0,96,76,46,30.05,29.97,8,1,0,0.00
2012-7-26,95.0,85.4,75.7,77.0,75.1,73.0,95,73,49,30.04,29.97,8,2,0,0.00
2012-7-27,93.1,85.1,76.6,78.0,75.3,72.0,95,74,51,30.09,29.98,11,2,0,0.00
2012-7-28,93.0,83.0,74.5,78.0,75.0,71.0,96,78,55,30.11,30.02,9,1,0,1.78
2012-7-29,94.0,84.5,74.9,78.0,74.4,71.0,97,73,52,30.08,29.99,8,2,0,0.00
2012-7-30,95.8,83.7,75.9,76.0,73.3,69.0,95,73,49,30.05,29.96,7,1,0,0.00
2012-7-31,95.1,84.5,74.2,77.0,73.2,69.0,90,71,45,30.05,29.95,9,2,0,0.00
2012-8-1,97.9,83.5,72.6,77.0,74.5,70.0,94,77,41,30.02,29.92,8,1,0,0.62
2012-8-2,96.5,84.3,77.0,79.0,76.6,73.0,97,79,49,29.99,29.91,6,1,0,0.01
2012-8-3,91.5,80.3,75.5,79.0,76.0,74.0,96,87,64,30.01,29.91,7,1,0,0.77
2012-8-4,91.3,82.5,75.5,78.0,76.1,75.0,97,82,61,30.05,29.93,11,2,0,0.00
2012-8-5,91.4,84.8,78.2,79.0,76.4,74.0,88,76,61,30.07,30.00,8,2,0,0.15
2012-8-6,88.4,80.6,74.9,79.0,76.4,73.0,95,87,71,30.06,29.98,15,2,0,1.47
2012-8-7,92.1,83.9,74.5,79.0,76.2,72.0,96,79,55,30.04,29.95,8,2,0,0.10
2012-8-8,93.4,85.5,78.9,79.0,76.8,75.0,92,76,58,30.04,29.96,8,2,0,0.00
2012-8-9,92.0,85.8,79.4,79.0,76.9,75.0,90,75,61,30.01,29.91,8,2,0,0.00
2012-8-10,87.4,81.0,78.1,78.0,75.1,73.0,92,82,69,29.99,29.92,7,2,0,0.09
2012-8-11,92.7,81.3,72.9,77.0,74.0,71.0,95,80,55,30.03,29.92,12,2,0,0.41
2012-8-12,94.8,80.7,75.3,79.0,76.0,73.0,97,87,53,30.05,29.97,8,1,0,1.98
2012-8-13,92.5,83.3,75.7,80.0,77.0,75.0,98,83,60,30.06,29.98,6,1,0,0.01
2012-8-14,94.5,84.4,77.3,79.0,76.7,74.0,95,79,54,30.05,29.95,7,1,0,0.00
2012-8-15,94.4,85.2,77.7,79.0,77.1,75.0,96,78,55,30.03,29.96,6,2,0,0.00
2012-8-16,94.3,84.5,78.1,79.0,77.1,74.0,95,79,53,30.07,29.98,6,1,0,0.00
2012-8-17,97.6,82.8,75.6,78.0,74.7,71.0,97,78,42,30.05,29.92,9,1,0,0.05
2012-8-18,97.7,80.9,74.4,78.0,74.6,71.0,97,83,46,30.00,29.91,13,1,0,1.00
2012-8-19,96.3,84.8,77.3,78.0,76.6,73.0,96,78,47,30.00,29.90,9,2,0,0.00
2012-8-20,93.6,83.9,77.4,79.0,76.3,72.0,96,79,55,30.01,29.90,10,2,0,0.26
2012-8-21,94.0,82.3,75.7,77.0,75.0,72.0,96,80,49,30.08,29.96,8,2,0,0.47
2012-8-22,94.0,80.1,74.0,79.0,73.8,68.0,97,82,59,30.09,30.00,8,1,0,0.00
2012-8-23,92.9,83.5,74.7,79.0,74.8,71.0,95,76,56,30.07,30.00,8,2,0,0.00
2012-8-24,89.9,80.8,71.5,77.0,74.0,69.0,95,80,61,30.02,29.92,10,2,0,1.60
2012-8-25,85.5,78.8,71.8,79.0,74.3,68.0,96,86,75,29.96,29.87,8,2,0,0.39
2012-8-26,84.1,79.2,74.8,78.0,76.1,72.0,96,90,77,29.87,29.70,23,7,0,3.88
2012-8-27,84.8,80.1,76.1,80.0,77.4,74.0,96,91,84,29.94,29.72,28,9,0,2.18
2012-8-28,91.6,82.7,78.6,80.0,77.4,75.0,94,84,67,30.00,29.91,11,3,0,0.01
2012-8-29,91.8,84.3,78.4,79.0,76.8,75.0,93,79,63,30.00,29.91,11,3,0,0.00
2012-8-30,91.8,84.1,76.3,78.0,76.1,75.0,97,78,58,30.09,29.95,9,2,0,0.00
2012-8-31,92.0,83.8,77.7,79.0,76.1,71.0,95,79,53,30.14,30.05,4,1,0,0.00
2012-9-1,90.6,83.7,77.2,79.0,76.3,74.0,95,79,62,30.10,30.01,12,2,0,0.04
2012-9-2,88.8,82.6,76.4,75.0,72.4,69.0,84,72,57,30.03,29.96,11,2,0,0.00
2012-9-3,90.3,82.2,74.8,76.0,73.9,72.0,94,77,56,30.04,29.96,8,2,0,0.00
2012-9-4,90.4,81.1,75.0,77.0,73.7,66.0,95,79,58,30.03,29.93,8,1,0,0.02
2012-9-5,92.0,77.1,70.8,76.0,69.4,-99.9,96,82,56,30.01,29.91,14,-20,0,2.14
2012-9-6,89.2,78.0,70.7,79.0,73.8,68.0,97,87,64,30.03,29.95,13,1,0,1.51
2012-9-7,91.7,79.8,72.6,78.0,73.7,70.0,97,82,57,30.00,29.91,6,1,0,1.41
2012-9-8,96.0,84.1,74.5,78.0,73.9,67.0,95,74,41,29.97,29.87,10,1,0,0.00
2012-9-9,95.2,85.3,76.9,78.0,74.6,71.0,93,72,45,29.97,29.88,6,1,0,0.00
2012-9-10,92.6,82.4,77.3,79.0,76.4,74.0,94,82,60,30.00,29.92,7,1,0,0.72
2012-9-11,89.8,80.7,75.8,78.0,75.8,74.0,96,86,63,30.05,29.96,7,1,0,0.74
2012-9-12,88.2,82.2,75.9,76.0,74.2,71.0,94,77,66,30.06,29.98,19,4,0,0.18
2012-9-13,85.0,81.5,76.5,76.0,74.3,73.0,94,79,69,30.06,29.96,12,3,0,0.10
2012-9-14,89.5,80.8,74.4,77.0,74.4,72.0,94,82,62,30.02,29.94,14,2,0,0.02
2012-9-15,87.5,79.6,74.8,78.0,74.3,72.0,95,84,68,30.04,29.96,8,1,0,0.05
2012-9-16,86.6,79.9,75.3,77.0,74.2,71.0,93,83,65,30.04,29.95,6,1,0,0.26
2012-9-17,89.0,81.2,74.3,77.0,74.8,72.0,97,82,62,30.01,29.91,8,2,0,0.05
2012-9-18,95.3,84.0,76.2,78.0,75.5,74.0,94,77,52,29.98,29.88,7,2,0,0.26
2012-9-19,94.5,82.5,75.3,78.0,76.2,74.0,96,82,53,30.04,29.91,5,1,0,0.00
2012-9-20,91.1,82.1,74.6,78.0,74.3,72.0,95,78,59,30.04,29.91,7,2,0,0.00
2012-9-21,89.6,79.1,72.8,76.0,73.8,69.0,95,85,55,29.97,29.89,6,1,0,1.05
2012-9-22,85.1,76.2,73.1,76.0,74.1,71.0,97,93,74,30.01,29.91,7,0,0,0.84
2012-9-23,84.5,78.2,74.9,77.0,74.7,72.0,97,89,74,30.04,29.97,6,0,0,0.37
2012-9-24,88.1,79.4,74.2,76.0,73.4,71.0,97,83,62,30.05,29.97,5,1,0,0.00
2012-9-25,86.8,79.8,74.3,76.0,73.3,70.0,90,81,66,30.06,29.97,6,1,0,0.00
2012-9-26,88.5,81.0,75.9,77.0,74.7,73.0,93,82,61,30.07,29.99,5,1,0,0.00
2012-9-27,92.0,82.2,74.2,78.0,74.6,70.0,94,79,52,30.07,29.97,5,1,0,0.11
2012-9-28,88.9,79.4,75.1,78.0,75.2,73.0,97,87,64,30.02,29.91,7,0,0,0.01
2012-9-29,91.1,81.4,74.2,77.0,75.1,72.0,96,82,61,29.96,29.84,6,1,0,0.00
2012-9-30,91.6,82.4,74.8,78.0,75.3,74.0,97,80,59,29.89,29.78,8,2,0,0.00
2012-10-1,88.4,80.0,75.0,79.0,75.3,73.0,96,86,68,29.86,29.76,7,2,0,1.01
2012-10-2,88.8,78.8,74.4,80.0,75.3,73.0,96,89,69,30.05,29.85,10,1,0,2.02
2012-10-3,91.1,82.5,75.8,80.0,77.1,74.0,97,84,64,30.16,30.03,8,2,0,0.01
2012-10-4,90.8,84.2,79.7,79.0,77.4,75.0,92,80,60,30.14,30.04,10,2,0,0.00
2012-10-5,90.6,84.1,79.1,78.0,76.5,74.0,93,79,62,30.08,29.92,8,2,0,0.00
2012-10-6,89.6,81.1,76.3,78.0,75.8,73.0,95,84,65,29.97,29.84,9,1,0,0.06
2012-10-7,86.3,79.2,74.5,79.0,75.2,72.0,95,88,70,29.96,29.86,11,1,0,0.20
2012-10-8,89.2,80.9,75.1,79.0,76.3,74.0,97,86,66,30.00,29.90,7,1,0,0.12
2012-10-9,89.9,81.6,76.0,77.0,75.6,72.0,97,83,57,30.00,29.93,7,1,0,0.01
2012-10-10,88.3,80.3,75.5,78.0,74.7,72.0,96,84,67,30.05,29.96,11,2,0,0.03
2012-10-11,85.7,79.7,71.5,73.0,69.9,67.0,95,74,56,30.10,30.02,9,3,0,0.00
2012-10-12,85.4,79.1,72.8,68.0,66.3,64.0,82,66,49,30.10,30.02,10,3,0,0.00
2012-10-13,84.4,78.0,70.9,73.0,68.2,65.0,94,73,54,30.09,30.01,15,4,0,0.20
2012-10-14,84.6,81.3,79.2,76.0,73.6,68.0,85,77,68,30.04,29.92,14,4,0,0.00
2012-10-15,88.8,81.9,76.2,75.0,73.8,71.0,89,77,60,29.93,29.77,9,2,0,0.00
2012-10-16,88.2,79.3,72.6,75.0,71.8,70.0,95,79,55,29.83,29.75,5,1,0,0.00
2012-10-17,87.5,75.3,70.5,76.0,69.0,-99.9,96,85,65,29.89,29.79,9,-20,0,0.72
2012-10-18,91.6,80.5,72.3,79.0,74.8,71.0,98,84,57,29.86,29.79,6,1,0,0.00
2012-10-19,90.4,80.8,75.0,78.0,75.3,72.0,97,84,60,29.89,29.79,7,1,0,0.00
2012-10-20,88.2,79.0,73.8,75.0,72.7,71.0,96,82,58,29.92,29.83,6,1,0,0.00
2012-10-21,86.1,77.6,69.9,71.0,65.4,62.0,92,68,47,29.99,29.88,10,2,0,0.00
2012-10-22,84.1,77.9,68.3,69.0,66.1,63.0,87,68,54,30.01,29.94,14,3,0,0.00
2012-10-23,84.8,79.3,72.7,72.0,68.3,63.0,93,69,60,29.98,29.90,16,4,0,0.02
2012-10-24,85.1,79.6,72.8,73.0,71.7,69.0,94,77,60,29.95,29.82,15,5,0,0.09
2012-10-25,82.5,78.1,69.1,74.0,72.0,66.0,96,81,74,29.82,29.64,14,5,0,0.38
2012-10-26,79.5,74.1,69.4,73.0,69.6,67.0,96,86,71,29.63,29.46,18,6,0,0.72
2012-10-27,81.5,73.7,67.8,68.0,64.8,63.0,88,74,56,29.67,29.45,21,6,0,0.00
2012-10-28,81.4,72.3,66.9,67.0,63.3,57.0,94,75,53,29.77,29.65,12,4,0,0.00
2012-10-29,72.3,64.6,58.5,57.0,50.2,41.0,81,61,34,29.85,29.73,10,3,0,0.00
2012-10-30,72.6,61.5,54.0,52.0,47.1,39.0,81,60,41,29.99,29.81,11,2,0,0.00
2012-10-31,73.7,63.2,53.9,57.0,52.5,44.0,96,71,43,30.06,29.96,6,1,0,0.00
2012-11-1,79.7,68.5,56.6,64.0,60.1,55.0,96,76,52,30.06,29.95,4,0,0,0.00
2012-11-2,80.0,69.9,61.6,65.0,58.1,48.0,96,70,33,30.07,29.99,6,1,0,0.00
2012-11-3,83.8,68.5,56.5,63.0,57.6,49.0,95,72,31,30.13,30.04,5,1,0,0.00
2012-11-4,82.9,71.1,61.6,68.0,63.5,61.0,98,79,50,30.10,29.99,6,1,0,0.01
2012-11-5,78.5,70.8,64.9,66.0,62.9,58.0,94,78,51,30.00,29.91,4,0,0,0.00
2012-11-6,84.5,72.6,63.9,68.0,63.4,57.0,96,76,44,29.92,29.80,8,1,0,0.00
2012-11-7,70.9,65.7,57.9,65.0,56.5,49.0,94,73,55,29.97,29.82,13,2,0,0.00
2012-11-8,69.1,61.0,54.6,52.0,46.0,39.0,82,60,34,30.10,29.95,10,3,0,0.00
2012-11-9,75.2,66.3,56.0,59.0,53.3,51.0,84,65,47,30.19,30.08,10,2,0,0.00
2012-11-10,75.9,71.5,65.8,60.0,55.9,52.0,77,58,48,30.25,30.16,11,3,0,0.00
2012-11-11,81.0,75.8,72.0,66.0,60.6,56.0,73,60,44,30.23,30.16,18,4,0,0.00
2012-11-12,81.9,76.6,74.2,69.0,67.5,64.0,80,73,62,30.18,30.11,14,4,0,0.03
2012-11-13,81.4,75.8,66.6,68.0,66.0,63.0,92,72,54,30.13,30.03,8,2,0,0.00
2012-11-14,80.0,72.3,66.0,71.0,66.6,64.0,95,83,65,30.11,30.03,9,2,0,0.20
2012-11-15,81.8,71.5,63.7,68.0,64.9,62.0,96,81,56,30.08,30.02,6,1,0,0.00
2012-11-16,78.5,68.9,64.0,69.0,65.2,62.0,96,88,69,30.10,30.00,5,2,0,0.02
2012-11-17,79.6,71.8,64.9,67.0,65.7,64.0,97,82,62,30.08,30.01,10,2,0,0.21
2012-11-18,79.2,71.5,66.8,69.0,66.1,64.0,95,83,66,30.10,30.01,8,3,0,0.04
2012-11-19,72.2,64.6,59.0,63.0,59.4,57.0,93,83,68,30.11,30.00,6,2,0,0.00
2012-11-20,74.4,65.3,59.5,66.0,61.2,58.0,95,87,74,30.03,29.90,7,3,0,0.00
2012-11-21,76.2,65.7,58.4,64.0,57.9,54.0,94,77,52,30.02,29.91,10,3,0,0.00
2012-11-22,74.2,63.4,55.7,57.0,52.2,49.0,83,68,48,30.10,29.98,10,4,0,0.00
2012-11-23,77.1,64.4,54.9,59.0,54.6,50.0,88,72,45,30.13,30.03,7,2,0,0.00
2012-11-24,73.9,62.6,51.3,57.0,53.6,49.0,92,74,45,30.11,29.99,8,1,0,0.00
2012-11-25,78.8,64.0,53.8,60.0,55.5,52.0,95,76,44,30.12,30.04,4,1,0,0.00
2012-11-26,79.9,68.8,59.4,65.0,61.3,56.0,94,78,56,30.18,30.09,6,0,0,0.00
2012-11-27,80.8,71.3,62.0,67.0,64.3,61.0,96,80,57,30.18,30.07,8,1,0,0.00
2012-11-28,79.5,70.3,63.9,66.0,64.4,62.0,95,83,55,30.17,30.08,9,2,0,0.02
2012-11-29,78.2,69.8,60.8,66.0,62.9,60.0,96,80,62,30.20,30.13,14,3,0,0.05
2012-11-30,76.2,72.8,70.9,64.0,62.0,60.0,73,69,63,30.21,30.12,16,4,0,0.00
2012-12-1,78.2,73.6,69.7,65.0,63.1,62.0,78,70,60,30.18,30.11,10,3,0,0.00
2012-12-2,78.5,74.5,71.9,67.0,65.1,63.0,78,73,64,30.22,30.14,13,4,0,0.00
2012-12-3,77.5,72.8,68.4,65.0,60.7,50.0,84,66,50,30.23,30.15,12,2,0,0.00
2012-12-4,77.9,73.3,67.3,64.0,60.4,52.0,75,64,52,30.22,30.14,8,2,0,0.00
2012-12-5,80.4,73.8,68.3,66.0,63.5,60.0,83,71,51,30.13,30.00,9,2,0,0.00
2012-12-6,82.1,72.5,66.0,71.0,66.8,64.0,95,83,62,30.00,29.89,9,1,0,0.52
2012-12-7,82.4,72.4,65.4,71.0,67.3,64.0,97,85,62,29.97,29.89,7,1,0,0.20
2012-12-8,81.0,74.1,66.2,72.0,69.7,65.0,97,86,73,30.02,29.95,8,1,0,0.00
2012-12-9,86.9,76.1,68.9,75.0,72.3,68.0,97,88,68,30.08,29.97,5,1,0,0.00
2012-12-10,84.4,77.2,70.1,76.0,73.4,69.0,98,88,72,30.01,29.90,14,3,0,0.00
2012-12-11,89.0,78.7,71.3,77.0,73.7,69.0,94,85,63,30.04,29.90,9,2,0,0.02
2012-12-12,83.2,77.1,72.6,73.0,72.0,71.0,96,84,69,30.07,30.00,12,2,0,0.00
2012-12-13,76.9,71.5,64.8,74.0,68.6,63.0,97,90,80,30.09,30.00,8,2,0,0.00
2012-12-14,78.9,68.5,62.4,68.0,63.4,58.0,97,85,50,30.12,30.04,13,2,0,0.22
2012-12-15,78.3,70.7,65.9,68.0,62.0,-99.9,97,79,65,30.09,30.01,7,-20,0,0.08
2012-12-16,81.8,72.8,66.4,71.0,67.8,65.0,97,85,64,30.04,29.94,8,1,0,0.10
2012-12-17,83.9,73.1,64.7,70.0,67.2,64.0,98,83,56,29.97,29.88,4,0,0,0.00
2012-12-18,84.0,73.8,67.2,72.0,68.0,66.0,98,83,57,30.00,29.89,5,1,0,0.00
2012-12-19,83.6,71.1,59.7,67.0,62.1,56.0,94,75,47,30.08,29.99,7,1,0,0.00
2012-12-20,82.0,73.2,63.1,68.0,65.4,62.0,97,78,54,30.08,29.95,12,2,0,0.00
2012-12-21,71.3,63.2,51.4,69.0,51.1,37.0,93,67,36,30.16,29.93,19,4,0,0.00
2012-12-22,62.9,52.5,44.5,43.0,33.3,25.0,79,50,29,30.25,30.16,9,3,0,0.00
2012-12-23,72.6,59.1,47.3,57.0,46.6,34.0,86,64,48,30.24,30.13,5,1,0,0.00
2012-12-24,78.3,66.3,55.6,60.0,57.0,52.0,91,74,52,30.14,29.98,9,1,0,0.00
2012-12-25,78.6,68.9,58.1,65.0,61.3,57.0,96,78,55,30.04,29.92,7,2,0,0.00
2012-12-26,83.7,74.5,62.8,71.0,67.7,58.0,95,80,64,29.97,29.82,9,2,0,0.02
2012-12-27,70.5,59.6,52.4,58.0,49.9,43.0,92,73,39,30.06,29.97,7,1,0,0.01
2012-12-28,76.5,67.9,52.8,71.0,63.2,50.0,92,85,72,30.08,29.96,8,2,0,0.00
2012-12-29,82.6,74.5,61.6,74.0,69.8,54.0,96,85,66,30.09,29.91,10,2,0,0.00
2012-12-30,67.3,59.8,49.2,57.0,51.8,45.0,86,75,65,30.28,30.09,8,3,0,0.00
2012-12-31,74.0,69.3,65.2,61.0,58.2,55.0,73,68,63,30.30,30.19,12,3,0,0.00
2013-1-1,79.3,72.8,66.2,65.0,61.4,59.0,84,68,57,30.19,30.04,11,2,0,0.00